Hauptseite
METAR-TAF:

METAR-TAF

Flughäfen :

Flughafen Grenchen

Grenchen, Schweiz

Breite: 47-10-53N, Länge: 007-24-59E, Höhe: 430 m

Beobachtung

Neuester Wetterbericht von vor 19 Minuten, um 02:50 UTC
Windstille
Temperatur 7°C
Luftfeuchtigkeit 93%
Luftdruck 1018 hPa
Sichtweite: 8000 m

METAR: LSZG 160250Z AUTO 00000KT 8000 NCD 07/06 Q1018

Zeit: 05:09 (03:09 UTC)

Prognose

Neuester Wetterbericht von vor 12 Stunden und 44 Minuten, um 14:25 UTC
Gültige Prognose vom 15 um 15 UTC bis 15 um 24 UTC
Wind 9 kt aus Ost/Nordost
Sichtweite 10 km oder mehr
keine Wolken unter 1500 m und keine Kumulonimbus oder Gewitterwolken
Übergehend zu
vom 15 um 21 UTC bis 15 um 24 UTC
Sichtweite: 7000 m

TAF: LSZG 151425Z 1515/1524 07009KT CAVOK BECMG 1521/1524 7000 NSC

Wetterbeobachtungen und Prognosen von mehr als 4000 Flughäfen (METAR und TAF Bericht).

Die verfügbaren Stationen werden durch gelbe und rote Markierungen auf der Karte dargestellt.

Führen Sie die Maus auf sie, um den Namen der Station zu sehen.

Darauf klicken, um die Beobachtung von Wetterbeobachtungen und Prognosen zu sehen.

Um die Karte zu ändern : klicken Sie auf den grünen Tasten mit einem schwarzen Kreuz Zum Vergrößern, auf den grünen Button mit einem Gedankenstrich zu verkleinern, oder auf die grünen Pfeile für benachbarte Karten.


METAR-TAF: